sensor_id;sensor_type;location;lat;lon;timestamp;pressure;altitude;pressure_sealevel;temperature;humidity
71344;BME280;59146;43.850;25.948;2023-08-24T00:00:45;100895.72;;;28.13;50.66
71344;BME280;59146;43.850;25.948;2023-08-24T00:03:13;100854.34;;;28.01;49.98
71344;BME280;59146;43.850;25.948;2023-08-24T00:05:40;100900.59;;;28.31;49.38
71344;BME280;59146;43.850;25.948;2023-08-24T00:08:07;100882.75;;;28.17;49.02
71344;BME280;59146;43.850;25.948;2023-08-24T00:10:36;100801.59;;;27.60;49.50
71344;BME280;59146;43.850;25.948;2023-08-24T00:13:02;100917.72;;;28.30;49.51
71344;BME280;59146;43.850;25.948;2023-08-24T00:15:27;100866.38;;;28.12;60.72
71344;BME280;59146;43.850;25.948;2023-08-24T00:17:54;100890.91;;;28.02;56.78
71344;BME280;59146;43.850;25.948;2023-08-24T00:20:19;100902.25;;;27.77;55.33
71344;BME280;59146;43.850;25.948;2023-08-24T00:22:45;100883.75;;;27.61;51.06
71344;BME280;59146;43.850;25.948;2023-08-24T00:25:11;100866.13;;;27.51;50.45
71344;BME280;59146;43.850;25.948;2023-08-24T00:27:36;100866.41;;;27.63;48.84
71344;BME280;59146;43.850;25.948;2023-08-24T00:30:03;100877.31;;;27.83;48.46
71344;BME280;59146;43.850;25.948;2023-08-24T00:32:33;100939.81;;;28.25;49.24
71344;BME280;59146;43.850;25.948;2023-08-24T00:35:02;100889.03;;;28.03;49.73
71344;BME280;59146;43.850;25.948;2023-08-24T00:37:28;100900.28;;;28.13;50.63
71344;BME280;59146;43.850;25.948;2023-08-24T00:39:54;100901.50;;;28.10;51.87
71344;BME280;59146;43.850;25.948;2023-08-24T00:42:20;100878.72;;;27.79;57.30
71344;BME280;59146;43.850;25.948;2023-08-24T00:44:48;100901.91;;;27.59;59.29
71344;BME280;59146;43.850;25.948;2023-08-24T00:47:13;100940.06;;;27.82;58.61
71344;BME280;59146;43.850;25.948;2023-08-24T00:49:39;100925.13;;;27.73;57.76
71344;BME280;59146;43.850;25.948;2023-08-24T00:52:05;100939.81;;;27.77;54.42
71344;BME280;59146;43.850;25.948;2023-08-24T00:54:30;100934.97;;;27.66;55.24
71344;BME280;59146;43.850;25.948;2023-08-24T00:56:56;100851.22;;;27.07;54.21
71344;BME280;59146;43.850;25.948;2023-08-24T00:59:21;100934.19;;;27.72;54.06
71344;BME280;59146;43.850;25.948;2023-08-24T01:01:47;100910.81;;;27.66;53.69
71344;BME280;59146;43.850;25.948;2023-08-24T01:04:13;100921.34;;;27.67;54.23
71344;BME280;59146;43.850;25.948;2023-08-24T01:06:38;100830.41;;;27.09;54.53
71344;BME280;59146;43.850;25.948;2023-08-24T01:09:04;100909.88;;;27.52;54.18
71344;BME280;59146;43.850;25.948;2023-08-24T01:11:57;100922.91;;;27.55;54.37
71344;BME280;59146;43.850;25.948;2023-08-24T01:17:05;100900.28;;;26.86;62.01
71344;BME280;59146;43.850;25.948;2023-08-24T01:22:02;100881.09;;;26.53;65.52
71344;BME280;59146;43.850;25.948;2023-08-24T01:24:38;100848.47;;;26.35;66.87
71344;BME280;59146;43.850;25.948;2023-08-24T01:27:05;100856.72;;;26.34;65.88
71344;BME280;59146;43.850;25.948;2023-08-24T01:29:31;100909.69;;;26.67;64.81
71344;BME280;59146;43.850;25.948;2023-08-24T01:31:57;100923.94;;;26.68;64.09
71344;BME280;59146;43.850;25.948;2023-08-24T01:34:22;100855.06;;;26.33;65.00
71344;BME280;59146;43.850;25.948;2023-08-24T01:36:48;100916.44;;;26.63;66.30
71344;BME280;59146;43.850;25.948;2023-08-24T01:39:30;100921.34;;;26.60;66.89
71344;BME280;59146;43.850;25.948;2023-08-24T01:41:58;100848.41;;;26.14;67.50
71344;BME280;59146;43.850;25.948;2023-08-24T01:44:25;100919.97;;;26.49;67.41
71344;BME280;59146;43.850;25.948;2023-08-24T01:46:54;100864.09;;;26.17;67.33
71344;BME280;59146;43.850;25.948;2023-08-24T01:49:21;100839.91;;;26.11;66.88
71344;BME280;59146;43.850;25.948;2023-08-24T01:51:48;100878.53;;;26.31;65.79
71344;BME280;59146;43.850;25.948;2023-08-24T01:54:14;100818.66;;;25.94;63.99
71344;BME280;59146;43.850;25.948;2023-08-24T01:56:39;100892.16;;;26.36;63.37
71344;BME280;59146;43.850;25.948;2023-08-24T01:59:05;100914.06;;;26.54;61.13
71344;BME280;59146;43.850;25.948;2023-08-24T02:01:30;100864.50;;;26.29;57.68
71344;BME280;59146;43.850;25.948;2023-08-24T02:03:55;100902.78;;;26.58;56.59
71344;BME280;59146;43.850;25.948;2023-08-24T02:06:21;100903.06;;;26.63;56.22
71344;BME280;59146;43.850;25.948;2023-08-24T02:08:47;100862.59;;;26.44;55.25
71344;BME280;59146;43.850;25.948;2023-08-24T02:11:12;100858.19;;;26.51;54.26
71344;BME280;59146;43.850;25.948;2023-08-24T02:13:37;100883.53;;;26.69;53.51
71344;BME280;59146;43.850;25.948;2023-08-24T02:16:08;100857.53;;;26.49;54.57
71344;BME280;59146;43.850;25.948;2023-08-24T02:18:34;100913.59;;;26.80;54.83
71344;BME280;59146;43.850;25.948;2023-08-24T02:20:59;100845.00;;;26.35;56.76
71344;BME280;59146;43.850;25.948;2023-08-24T02:23:25;100907.97;;;26.74;55.24
71344;BME280;59146;43.850;25.948;2023-08-24T02:25:50;100860.22;;;26.34;54.44
71344;BME280;59146;43.850;25.948;2023-08-24T02:28:15;100852.19;;;26.20;54.38
71344;BME280;59146;43.850;25.948;2023-08-24T02:30:41;100821.03;;;25.89;55.44
71344;BME280;59146;43.850;25.948;2023-08-24T02:33:06;100894.59;;;26.31;56.88
71344;BME280;59146;43.850;25.948;2023-08-24T02:35:33;100850.25;;;26.14;55.82
71344;BME280;59146;43.850;25.948;2023-08-24T02:37:58;100846.56;;;26.15;54.71
71344;BME280;59146;43.850;25.948;2023-08-24T02:40:23;100841.47;;;26.05;54.56
71344;BME280;59146;43.850;25.948;2023-08-24T02:42:49;100902.97;;;26.42;55.30
71344;BME280;59146;43.850;25.948;2023-08-24T02:45:14;100894.09;;;26.42;55.13
71344;BME280;59146;43.850;25.948;2023-08-24T02:47:40;100856.44;;;26.14;56.73
71344;BME280;59146;43.850;25.948;2023-08-24T02:50:05;100895.59;;;26.44;58.59
71344;BME280;59146;43.850;25.948;2023-08-24T02:52:32;100854.84;;;26.05;59.20
71344;BME280;59146;43.850;25.948;2023-08-24T02:54:58;100880.72;;;26.13;59.02
71344;BME280;59146;43.850;25.948;2023-08-24T02:57:23;100914.25;;;26.38;58.32
71344;BME280;59146;43.850;25.948;2023-08-24T02:59:49;100912.59;;;26.37;58.29
71344;BME280;59146;43.850;25.948;2023-08-24T03:02:14;100916.47;;;26.34;57.24
71344;BME280;59146;43.850;25.948;2023-08-24T03:04:40;100901.78;;;26.16;58.33
71344;BME280;59146;43.850;25.948;2023-08-24T03:07:05;100903.13;;;25.97;60.08
71344;BME280;59146;43.850;25.948;2023-08-24T03:09:34;100906.69;;;25.89;59.40
71344;BME280;59146;43.850;25.948;2023-08-24T03:12:00;100866.41;;;25.68;57.64
71344;BME280;59146;43.850;25.948;2023-08-24T03:14:25;100939.16;;;26.09;57.79
71344;BME280;59146;43.850;25.948;2023-08-24T03:16:51;100926.63;;;26.01;58.85
71344;BME280;59146;43.850;25.948;2023-08-24T03:19:16;100913.41;;;25.85;59.16
71344;BME280;59146;43.850;25.948;2023-08-24T03:21:43;100898.81;;;25.73;59.09
71344;BME280;59146;43.850;25.948;2023-08-24T03:24:09;100939.28;;;25.93;58.54
71344;BME280;59146;43.850;25.948;2023-08-24T03:26:34;100923.66;;;25.82;59.49
71344;BME280;59146;43.850;25.948;2023-08-24T03:28:59;100898.31;;;25.55;59.72
71344;BME280;59146;43.850;25.948;2023-08-24T03:31:25;100879.63;;;25.47;59.80
71344;BME280;59146;43.850;25.948;2023-08-24T03:33:51;100914.75;;;25.67;59.87
71344;BME280;59146;43.850;25.948;2023-08-24T03:36:17;100910.16;;;25.75;58.86
71344;BME280;59146;43.850;25.948;2023-08-24T03:38:42;100848.72;;;25.22;58.16
71344;BME280;59146;43.850;25.948;2023-08-24T03:41:07;100922.78;;;25.67;57.26
71344;BME280;59146;43.850;25.948;2023-08-24T03:43:34;100937.97;;;25.66;57.36
71344;BME280;59146;43.850;25.948;2023-08-24T03:46:00;100894.41;;;25.35;57.27
71344;BME280;59146;43.850;25.948;2023-08-24T03:48:26;100967.97;;;25.84;56.71
71344;BME280;59146;43.850;25.948;2023-08-24T03:50:56;100949.75;;;25.80;56.76
71344;BME280;59146;43.850;25.948;2023-08-24T03:53:22;100935.63;;;25.71;56.92
71344;BME280;59146;43.850;25.948;2023-08-24T03:55:48;100907.09;;;26.01;55.11
71344;BME280;59146;43.850;25.948;2023-08-24T03:58:14;100933.81;;;26.67;53.71
71344;BME280;59146;43.850;25.948;2023-08-24T04:00:39;100855.09;;;26.83;51.87
71344;BME280;59146;43.850;25.948;2023-08-24T04:03:07;100924.16;;;27.59;50.39
71344;BME280;59146;43.850;25.948;2023-08-24T04:05:32;100956.22;;;28.37;49.49
71344;BME280;59146;43.850;25.948;2023-08-24T04:07:58;100906.44;;;28.75;47.88
71344;BME280;59146;43.850;25.948;2023-08-24T04:10:25;100828.84;;;28.66;46.92
71344;BME280;59146;43.850;25.948;2023-08-24T04:12:51;100970.22;;;29.61;46.58
71344;BME280;59146;43.850;25.948;2023-08-24T04:15:16;100957.41;;;29.83;45.74
71344;BME280;59146;43.850;25.948;2023-08-24T04:17:41;100959.69;;;30.12;44.80
71344;BME280;59146;43.850;25.948;2023-08-24T04:20:07;100978.47;;;30.65;44.20
71344;BME280;59146;43.850;25.948;2023-08-24T04:22:34;100929.78;;;30.66;44.15
71344;BME280;59146;43.850;25.948;2023-08-24T04:24:59;100972.53;;;31.13;43.54
71344;BME280;59146;43.850;25.948;2023-08-24T04:27:25;100980.28;;;30.97;43.16
71344;BME280;59146;43.850;25.948;2023-08-24T04:29:51;100927.34;;;31.02;42.24
71344;BME280;59146;43.850;25.948;2023-08-24T04:32:21;100953.75;;;31.69;40.88
71344;BME280;59146;43.850;25.948;2023-08-24T04:34:46;100963.06;;;32.23;39.42
71344;BME280;59146;43.850;25.948;2023-08-24T04:37:12;100950.16;;;32.43;38.91
71344;BME280;59146;43.850;25.948;2023-08-24T04:39:41;100986.06;;;32.93;38.31
71344;BME280;59146;43.850;25.948;2023-08-24T04:42:06;100936.25;;;33.00;37.37
71344;BME280;59146;43.850;25.948;2023-08-24T04:44:32;100981.09;;;33.37;37.44
71344;BME280;59146;43.850;25.948;2023-08-24T04:46:58;100966.38;;;33.51;36.92
71344;BME280;59146;43.850;25.948;2023-08-24T04:49:23;100967.22;;;33.75;36.15
71344;BME280;59146;43.850;25.948;2023-08-24T04:51:49;100959.34;;;33.44;36.61
71344;BME280;59146;43.850;25.948;2023-08-24T04:54:14;100969.84;;;33.40;36.73
71344;BME280;59146;43.850;25.948;2023-08-24T04:56:40;100970.59;;;32.81;37.53
71344;BME280;59146;43.850;25.948;2023-08-24T04:59:05;100960.78;;;33.46;36.45
71344;BME280;59146;43.850;25.948;2023-08-24T05:01:33;100970.88;;;33.57;36.53
71344;BME280;59146;43.850;25.948;2023-08-24T05:03:59;100935.31;;;33.66;35.95
71344;BME280;59146;43.850;25.948;2023-08-24T05:06:25;100945.22;;;33.42;35.87
71344;BME280;59146;43.850;25.948;2023-08-24T05:08:50;100970.03;;;32.91;37.10
71344;BME280;59146;43.850;25.948;2023-08-24T05:11:22;100817.91;;;32.48;36.96
71344;BME280;59146;43.850;25.948;2023-08-24T05:13:49;100899.78;;;33.32;36.56
71344;BME280;59146;43.850;25.948;2023-08-24T05:16:14;100934.28;;;33.48;35.36
71344;BME280;59146;43.850;25.948;2023-08-24T05:18:40;100941.16;;;33.21;36.12
71344;BME280;59146;43.850;25.948;2023-08-24T05:21:06;100969.53;;;33.01;36.72
71344;BME280;59146;43.850;25.948;2023-08-24T05:23:32;100956.41;;;32.43;37.76
71344;BME280;59146;43.850;25.948;2023-08-24T05:25:59;101004.56;;;32.59;38.21
71344;BME280;59146;43.850;25.948;2023-08-24T05:28:36;100998.75;;;32.56;38.20
71344;BME280;59146;43.850;25.948;2023-08-24T05:31:08;101007.88;;;32.12;38.77
71344;BME280;59146;43.850;25.948;2023-08-24T05:33:33;100950.03;;;31.26;39.69
71344;BME280;59146;43.850;25.948;2023-08-24T05:35:59;100964.22;;;30.57;42.50
71344;BME280;59146;43.850;25.948;2023-08-24T05:38:24;100957.00;;;30.38;43.14
71344;BME280;59146;43.850;25.948;2023-08-24T05:40:50;100960.56;;;29.93;45.88
71344;BME280;59146;43.850;25.948;2023-08-24T05:43:15;100953.22;;;29.54;47.95
71344;BME280;59146;43.850;25.948;2023-08-24T05:45:41;100998.22;;;29.80;48.99
71344;BME280;59146;43.850;25.948;2023-08-24T05:48:09;100995.34;;;29.88;46.46
71344;BME280;59146;43.850;25.948;2023-08-24T05:50:35;101005.28;;;29.88;49.04
71344;BME280;59146;43.850;25.948;2023-08-24T05:53:03;100953.41;;;29.40;46.83
71344;BME280;59146;43.850;25.948;2023-08-24T05:55:28;100959.19;;;29.30;44.75
71344;BME280;59146;43.850;25.948;2023-08-24T05:57:53;100949.84;;;29.20;44.40
71344;BME280;59146;43.850;25.948;2023-08-24T06:00:19;100961.72;;;29.45;45.12
71344;BME280;59146;43.850;25.948;2023-08-24T06:02:47;100939.97;;;29.72;47.96
71344;BME280;59146;43.850;25.948;2023-08-24T06:05:12;100957.03;;;29.99;47.11
71344;BME280;59146;43.850;25.948;2023-08-24T06:07:38;100932.38;;;29.83;47.40
71344;BME280;59146;43.850;25.948;2023-08-24T06:10:04;100945.97;;;29.42;48.02
71344;BME280;59146;43.850;25.948;2023-08-24T06:12:29;100993.16;;;29.44;49.48
71344;BME280;59146;43.850;25.948;2023-08-24T06:14:54;100958.06;;;29.05;47.04
71344;BME280;59146;43.850;25.948;2023-08-24T06:17:20;100974.72;;;29.41;46.44
71344;BME280;59146;43.850;25.948;2023-08-24T06:19:45;100988.88;;;29.69;50.58
71344;BME280;59146;43.850;25.948;2023-08-24T06:22:11;101001.09;;;30.64;47.27
71344;BME280;59146;43.850;25.948;2023-08-24T06:24:36;100976.47;;;31.11;45.97
71344;BME280;59146;43.850;25.948;2023-08-24T06:27:02;100895.69;;;30.91;43.96
71344;BME280;59146;43.850;25.948;2023-08-24T06:29:28;100976.19;;;31.63;43.88
71344;BME280;59146;43.850;25.948;2023-08-24T06:31:54;100963.88;;;31.74;42.53
71344;BME280;59146;43.850;25.948;2023-08-24T06:34:20;101013.00;;;31.89;42.49
71344;BME280;59146;43.850;25.948;2023-08-24T06:36:46;101012.66;;;31.79;43.25
71344;BME280;59146;43.850;25.948;2023-08-24T06:39:12;101010.91;;;31.91;42.09
71344;BME280;59146;43.850;25.948;2023-08-24T06:41:38;101031.19;;;32.06;40.77
71344;BME280;59146;43.850;25.948;2023-08-24T06:44:03;100966.78;;;32.03;40.98
71344;BME280;59146;43.850;25.948;2023-08-24T06:46:29;100992.59;;;31.99;41.70
71344;BME280;59146;43.850;25.948;2023-08-24T06:48:54;101017.38;;;31.96;42.43
71344;BME280;59146;43.850;25.948;2023-08-24T06:51:20;100985.66;;;31.79;42.50
71344;BME280;59146;43.850;25.948;2023-08-24T06:53:45;100996.09;;;31.75;41.27
71344;BME280;59146;43.850;25.948;2023-08-24T06:56:14;101036.81;;;31.67;42.85
71344;BME280;59146;43.850;25.948;2023-08-24T06:58:40;101014.22;;;31.62;43.13
71344;BME280;59146;43.850;25.948;2023-08-24T07:01:05;100990.97;;;31.92;41.88
71344;BME280;59146;43.850;25.948;2023-08-24T07:03:32;100982.00;;;31.98;40.96
71344;BME280;59146;43.850;25.948;2023-08-24T07:05:58;101041.78;;;32.33;40.85
71344;BME280;59146;43.850;25.948;2023-08-24T07:08:24;100998.78;;;32.06;40.06
71344;BME280;59146;43.850;25.948;2023-08-24T07:10:49;100968.63;;;31.78;40.04
71344;BME280;59146;43.850;25.948;2023-08-24T07:13:15;101005.50;;;31.97;39.84
71344;BME280;59146;43.850;25.948;2023-08-24T07:15:40;100996.41;;;31.85;40.67
71344;BME280;59146;43.850;25.948;2023-08-24T07:18:06;100997.09;;;32.30;39.31
71344;BME280;59146;43.850;25.948;2023-08-24T07:20:33;101024.84;;;33.05;37.92
71344;BME280;59146;43.850;25.948;2023-08-24T07:22:58;101044.50;;;33.78;36.63
71344;BME280;59146;43.850;25.948;2023-08-24T07:25:24;101017.72;;;33.99;35.88
71344;BME280;59146;43.850;25.948;2023-08-24T07:27:49;100969.38;;;33.96;34.53
71344;BME280;59146;43.850;25.948;2023-08-24T07:30:15;101006.56;;;34.07;35.95
71344;BME280;59146;43.850;25.948;2023-08-24T07:32:41;101027.66;;;33.76;36.83
71344;BME280;59146;43.850;25.948;2023-08-24T07:35:07;101016.34;;;33.19;37.72
71344;BME280;59146;43.850;25.948;2023-08-24T07:37:33;100974.69;;;32.66;38.31
71344;BME280;59146;43.850;25.948;2023-08-24T07:39:58;100960.22;;;32.60;37.31
71344;BME280;59146;43.850;25.948;2023-08-24T07:42:24;100990.13;;;32.65;37.47
71344;BME280;59146;43.850;25.948;2023-08-24T07:44:49;101004.19;;;32.74;38.35
71344;BME280;59146;43.850;25.948;2023-08-24T07:47:15;100977.66;;;32.46;38.45
71344;BME280;59146;43.850;25.948;2023-08-24T07:49:41;101022.56;;;32.41;39.69
71344;BME280;59146;43.850;25.948;2023-08-24T07:52:10;101018.78;;;32.48;38.66
71344;BME280;59146;43.850;25.948;2023-08-24T07:54:37;101010.69;;;32.24;39.04
71344;BME280;59146;43.850;25.948;2023-08-24T07:57:02;101023.47;;;32.35;38.36
71344;BME280;59146;43.850;25.948;2023-08-24T07:59:28;100963.06;;;32.04;40.01
71344;BME280;59146;43.850;25.948;2023-08-24T08:01:53;101009.13;;;32.59;38.82
71344;BME280;59146;43.850;25.948;2023-08-24T08:04:18;101012.94;;;32.51;38.52
71344;BME280;59146;43.850;25.948;2023-08-24T08:06:44;100958.19;;;32.13;38.69
71344;BME280;59146;43.850;25.948;2023-08-24T08:09:09;101013.75;;;32.52;38.95
71344;BME280;59146;43.850;25.948;2023-08-24T08:11:35;100966.50;;;32.36;39.62
71344;BME280;59146;43.850;25.948;2023-08-24T08:14:00;101023.72;;;32.94;37.89
71344;BME280;59146;43.850;25.948;2023-08-24T08:16:26;100998.75;;;32.92;38.00
71344;BME280;59146;43.850;25.948;2023-08-24T08:18:51;100974.56;;;32.79;37.86
71344;BME280;59146;43.850;25.948;2023-08-24T08:21:17;101010.41;;;33.11;38.15
71344;BME280;59146;43.850;25.948;2023-08-24T08:23:46;101023.53;;;32.89;38.81
71344;BME280;59146;43.850;25.948;2023-08-24T08:26:12;100965.59;;;32.78;38.25
71344;BME280;59146;43.850;25.948;2023-08-24T08:28:39;100982.59;;;33.04;37.69
71344;BME280;59146;43.850;25.948;2023-08-24T08:31:04;100999.06;;;33.02;38.61
71344;BME280;59146;43.850;25.948;2023-08-24T08:33:31;100995.81;;;32.94;38.82
71344;BME280;59146;43.850;25.948;2023-08-24T08:36:00;101003.34;;;32.92;37.94
71344;BME280;59146;43.850;25.948;2023-08-24T08:38:26;101000.16;;;33.01;38.63
71344;BME280;59146;43.850;25.948;2023-08-24T08:40:54;100954.72;;;32.85;38.07
71344;BME280;59146;43.850;25.948;2023-08-24T08:43:22;100954.28;;;32.88;38.50
71344;BME280;59146;43.850;25.948;2023-08-24T08:45:51;100951.63;;;33.18;38.01
71344;BME280;59146;43.850;25.948;2023-08-24T08:48:17;100998.44;;;33.78;37.14
71344;BME280;59146;43.850;25.948;2023-08-24T08:50:43;100956.78;;;33.79;36.26
71344;BME280;59146;43.850;25.948;2023-08-24T08:53:08;100982.63;;;34.04;35.81
71344;BME280;59146;43.850;25.948;2023-08-24T08:55:34;100982.69;;;33.98;36.18
71344;BME280;59146;43.850;25.948;2023-08-24T08:58:00;100966.78;;;33.78;36.17
71344;BME280;59146;43.850;25.948;2023-08-24T09:00:25;100989.19;;;33.97;35.79
71344;BME280;59146;43.850;25.948;2023-08-24T09:02:53;100989.22;;;34.08;35.80
71344;BME280;59146;43.850;25.948;2023-08-24T09:05:19;100945.56;;;33.75;35.83
71344;BME280;59146;43.850;25.948;2023-08-24T09:07:46;100950.28;;;33.80;36.18
71344;BME280;59146;43.850;25.948;2023-08-24T09:10:13;100949.09;;;33.76;36.42
71344;BME280;59146;43.850;25.948;2023-08-24T09:12:38;100980.22;;;33.96;36.00
71344;BME280;59146;43.850;25.948;2023-08-24T09:15:07;100964.00;;;34.19;36.51
71344;BME280;59146;43.850;25.948;2023-08-24T09:17:33;100963.78;;;34.32;34.80
71344;BME280;59146;43.850;25.948;2023-08-24T09:20:01;100987.81;;;34.40;35.09
71344;BME280;59146;43.850;25.948;2023-08-24T09:22:34;100935.59;;;34.22;34.53
71344;BME280;59146;43.850;25.948;2023-08-24T09:25:00;100924.97;;;34.32;33.79
71344;BME280;59146;43.850;25.948;2023-08-24T09:27:29;100977.59;;;34.54;33.94
71344;BME280;59146;43.850;25.948;2023-08-24T09:29:54;100946.09;;;34.42;33.48
71344;BME280;59146;43.850;25.948;2023-08-24T09:32:38;100968.97;;;34.69;33.73
71344;BME280;59146;43.850;25.948;2023-08-24T09:35:06;100955.59;;;34.67;33.13
71344;BME280;59146;43.850;25.948;2023-08-24T09:37:36;100974.66;;;34.95;32.71
71344;BME280;59146;43.850;25.948;2023-08-24T09:40:06;100916.81;;;34.67;32.91
71344;BME280;59146;43.850;25.948;2023-08-24T09:42:40;100966.63;;;35.00;32.54
71344;BME280;59146;43.850;25.948;2023-08-24T09:45:08;100935.06;;;34.83;32.88
71344;BME280;59146;43.850;25.948;2023-08-24T09:47:36;100929.72;;;34.88;32.18
71344;BME280;59146;43.850;25.948;2023-08-24T09:50:03;100830.97;;;34.09;32.90
71344;BME280;59146;43.850;25.948;2023-08-24T09:52:32;100920.00;;;34.52;32.78
71344;BME280;59146;43.850;25.948;2023-08-24T09:55:02;100899.03;;;34.36;32.87
71344;BME280;59146;43.850;25.948;2023-08-24T09:57:32;100848.72;;;33.94;32.27
71344;BME280;59146;43.850;25.948;2023-08-24T09:59:59;100960.31;;;34.83;31.85
71344;BME280;59146;43.850;25.948;2023-08-24T10:02:27;100898.31;;;34.64;32.57
71344;BME280;59146;43.850;25.948;2023-08-24T10:04:57;100957.00;;;35.21;31.68
71344;BME280;59146;43.850;25.948;2023-08-24T10:07:25;100913.13;;;35.12;31.50
71344;BME280;59146;43.850;25.948;2023-08-24T10:09:58;100942.38;;;35.39;31.20
71344;BME280;59146;43.850;25.948;2023-08-24T10:12:28;100932.97;;;35.30;31.10
71344;BME280;59146;43.850;25.948;2023-08-24T10:14:59;100903.38;;;35.28;31.16
71344;BME280;59146;43.850;25.948;2023-08-24T10:17:30;100932.81;;;35.48;30.86
71344;BME280;59146;43.850;25.948;2023-08-24T10:19:58;100880.06;;;35.15;30.92
71344;BME280;59146;43.850;25.948;2023-08-24T10:22:28;100878.50;;;35.36;31.08
71344;BME280;59146;43.850;25.948;2023-08-24T10:24:54;100887.66;;;35.30;30.52
71344;BME280;59146;43.850;25.948;2023-08-24T10:27:22;100889.56;;;35.46;30.64
71344;BME280;59146;43.850;25.948;2023-08-24T10:29:49;100880.69;;;35.67;30.15
71344;BME280;59146;43.850;25.948;2023-08-24T10:32:14;100898.31;;;35.81;28.95
71344;BME280;59146;43.850;25.948;2023-08-24T10:34:40;100906.63;;;36.08;28.86
71344;BME280;59146;43.850;25.948;2023-08-24T10:37:09;100920.50;;;36.28;28.63
71344;BME280;59146;43.850;25.948;2023-08-24T10:39:36;100913.91;;;36.24;28.07
71344;BME280;59146;43.850;25.948;2023-08-24T10:42:10;100885.44;;;35.93;30.13
71344;BME280;59146;43.850;25.948;2023-08-24T10:44:36;100871.38;;;36.13;30.39
71344;BME280;59146;43.850;25.948;2023-08-24T10:47:29;100892.38;;;36.39;29.82
71344;BME280;59146;43.850;25.948;2023-08-24T10:52:30;100856.31;;;35.72;29.72
71344;BME280;59146;43.850;25.948;2023-08-24T10:55:00;100846.63;;;35.60;29.59
71344;BME280;59146;43.850;25.948;2023-08-24T10:57:31;100884.38;;;35.78;29.12
71344;BME280;59146;43.850;25.948;2023-08-24T11:00:04;100844.13;;;35.42;29.00
71344;BME280;59146;43.850;25.948;2023-08-24T11:02:51;100860.94;;;35.55;29.60
71344;BME280;59146;43.850;25.948;2023-08-24T11:05:19;100877.88;;;35.46;29.99
71344;BME280;59146;43.850;25.948;2023-08-24T11:07:57;100865.22;;;35.51;29.87
71344;BME280;59146;43.850;25.948;2023-08-24T11:13:08;100841.34;;;35.53;29.87
71344;BME280;59146;43.850;25.948;2023-08-24T11:15:45;100852.13;;;35.81;28.99
71344;BME280;59146;43.850;25.948;2023-08-24T11:18:15;100855.72;;;35.87;28.98
71344;BME280;59146;43.850;25.948;2023-08-24T11:20:45;100836.00;;;35.58;29.22
71344;BME280;59146;43.850;25.948;2023-08-24T11:23:12;100790.09;;;35.57;28.78
71344;BME280;59146;43.850;25.948;2023-08-24T11:25:38;100778.13;;;35.58;29.02
71344;BME280;59146;43.850;25.948;2023-08-24T11:28:04;100825.53;;;35.67;29.84
71344;BME280;59146;43.850;25.948;2023-08-24T11:30:31;100803.81;;;35.67;29.92
71344;BME280;59146;43.850;25.948;2023-08-24T11:32:58;100786.28;;;35.58;29.80
71344;BME280;59146;43.850;25.948;2023-08-24T11:35:25;100811.22;;;35.71;29.87
71344;BME280;59146;43.850;25.948;2023-08-24T11:37:54;100782.22;;;35.77;29.71
71344;BME280;59146;43.850;25.948;2023-08-24T11:40:21;100749.31;;;35.40;29.71
71344;BME280;59146;43.850;25.948;2023-08-24T11:42:53;100790.47;;;35.65;29.87
71344;BME280;59146;43.850;25.948;2023-08-24T11:45:20;100758.09;;;35.64;29.87
71344;BME280;59146;43.850;25.948;2023-08-24T11:47:46;100783.78;;;35.73;30.15
71344;BME280;59146;43.850;25.948;2023-08-24T11:50:12;100751.75;;;35.75;29.83
71344;BME280;59146;43.850;25.948;2023-08-24T11:52:41;100691.94;;;35.53;30.28
71344;BME280;59146;43.850;25.948;2023-08-24T11:55:07;100709.78;;;35.66;30.28
71344;BME280;59146;43.850;25.948;2023-08-24T11:57:34;100711.75;;;35.70;30.20
71344;BME280;59146;43.850;25.948;2023-08-24T12:00:00;100733.47;;;35.70;30.52
71344;BME280;59146;43.850;25.948;2023-08-24T12:02:27;100703.06;;;35.52;30.49
71344;BME280;59146;43.850;25.948;2023-08-24T12:04:52;100705.34;;;35.60;30.51
71344;BME280;59146;43.850;25.948;2023-08-24T12:07:20;100696.50;;;35.48;30.34
71344;BME280;59146;43.850;25.948;2023-08-24T12:09:46;100684.38;;;35.17;30.83
71344;BME280;59146;43.850;25.948;2023-08-24T12:12:18;100732.22;;;35.56;30.50
71344;BME280;59146;43.850;25.948;2023-08-24T12:14:47;100742.97;;;35.89;30.64
71344;BME280;59146;43.850;25.948;2023-08-24T12:17:14;100719.44;;;35.78;29.87
71344;BME280;59146;43.850;25.948;2023-08-24T12:19:43;100699.22;;;35.31;30.66
71344;BME280;59146;43.850;25.948;2023-08-24T12:22:16;100700.03;;;35.70;30.06
71344;BME280;59146;43.850;25.948;2023-08-24T12:24:45;100741.22;;;36.22;29.88
71344;BME280;59146;43.850;25.948;2023-08-24T12:27:26;100752.22;;;36.32;29.58
71344;BME280;59146;43.850;25.948;2023-08-24T12:29:52;100717.44;;;36.12;30.26
71344;BME280;59146;43.850;25.948;2023-08-24T12:32:18;100741.72;;;36.19;30.17
71344;BME280;59146;43.850;25.948;2023-08-24T12:34:50;100712.91;;;35.96;29.80
71344;BME280;59146;43.850;25.948;2023-08-24T12:37:19;100744.72;;;36.17;29.99
71344;BME280;59146;43.850;25.948;2023-08-24T12:39:45;100692.63;;;35.82;30.33
71344;BME280;59146;43.850;25.948;2023-08-24T12:42:10;100729.13;;;36.34;30.75
71344;BME280;59146;43.850;25.948;2023-08-24T12:44:36;100678.44;;;36.02;29.96
71344;BME280;59146;43.850;25.948;2023-08-24T12:47:02;100689.69;;;36.10;30.36
71344;BME280;59146;43.850;25.948;2023-08-24T12:49:28;100719.53;;;36.05;30.71